Terminal Aerodrome Forecast
Issued by NWS Albany, NY

Current Version | Previous Version | Text Only | Print | Product List | Glossary On
Versions: 1 2 3 4 5 6 7 8 9 10 11 12 13 14 15
000
FTUS41 KALY 211100
TAFPOU
TAF
KPOU 211135Z 2112/2212 VRB03KT P6SM FEW015 SCT040 OVC060
     FM211600 15005KT P6SM BKN060 BKN250
     FM212100 16006KT P6SM VCSH SCT035 BKN050
     FM220000 VRB04KT 3SM -SHRA BR SCT015 OVC035
     FM220600 VRB03KT 4SM -SHRA BR OVC015=

USA.gov is the U.S. government's official web portal to all federal, state and local government web resources and services.